Terminal Aerodrome Forecast
Issued by NWS

Home | Current Version | Previous Version | Text Only | Print | Product List | Glossary On
Versions: 1 2 3 4 5 6 7 8 9 10 11 12 13
000
FTUS42 KMLB 222300
TAFTIX
TAF
KTIX 222333Z 2300/2324 13008KT P6SM FEW250
     FM230300 VRB03KT P6SM FEW250
     FM231500 26005KT P6SM FEW030
     FM232000 08005KT P6SM SCT040
      AMD NOT SKED 2301/2311=

USA.gov is the U.S. government's official web portal to all federal, state and local government web resources and services.